sensor_id;sensor_type;location;lat;lon;timestamp;P1;durP1;ratioP1;P2;durP2;ratioP2
34433;SDS011;34290;48.562;13.384;2022-12-07T00:00:54;12.80;;;6.67;;
34433;SDS011;34290;48.562;13.384;2022-12-07T00:03:32;15.27;;;7.10;;
34433;SDS011;34290;48.562;13.384;2022-12-07T00:05:59;16.57;;;7.17;;
34433;SDS011;34290;48.562;13.384;2022-12-07T00:08:26;15.00;;;7.33;;
34433;SDS011;34290;48.562;13.384;2022-12-07T00:10:53;17.13;;;8.13;;
34433;SDS011;34290;48.562;13.384;2022-12-07T00:13:20;16.67;;;8.23;;
34433;SDS011;34290;48.562;13.384;2022-12-07T00:15:49;16.10;;;7.83;;
34433;SDS011;34290;48.562;13.384;2022-12-07T00:18:16;14.27;;;7.60;;
34433;SDS011;34290;48.562;13.384;2022-12-07T00:20:43;13.10;;;7.23;;
34433;SDS011;34290;48.562;13.384;2022-12-07T00:23:10;16.43;;;7.40;;
34433;SDS011;34290;48.562;13.384;2022-12-07T00:25:36;16.00;;;7.73;;
34433;SDS011;34290;48.562;13.384;2022-12-07T00:28:03;14.77;;;7.27;;
34433;SDS011;34290;48.562;13.384;2022-12-07T00:30:31;14.17;;;7.30;;
34433;SDS011;34290;48.562;13.384;2022-12-07T00:33:00;14.80;;;7.50;;
34433;SDS011;34290;48.562;13.384;2022-12-07T00:35:27;14.23;;;7.37;;
34433;SDS011;34290;48.562;13.384;2022-12-07T00:37:53;13.63;;;7.27;;
34433;SDS011;34290;48.562;13.384;2022-12-07T00:40:20;14.17;;;7.67;;
34433;SDS011;34290;48.562;13.384;2022-12-07T00:42:47;14.57;;;7.33;;
34433;SDS011;34290;48.562;13.384;2022-12-07T00:45:14;13.00;;;6.50;;
34433;SDS011;34290;48.562;13.384;2022-12-07T00:47:42;12.73;;;7.00;;
34433;SDS011;34290;48.562;13.384;2022-12-07T00:50:11;14.00;;;7.20;;
34433;SDS011;34290;48.562;13.384;2022-12-07T00:52:37;13.97;;;7.53;;
34433;SDS011;34290;48.562;13.384;2022-12-07T00:55:05;14.10;;;6.93;;
34433;SDS011;34290;48.562;13.384;2022-12-07T00:57:32;13.60;;;6.73;;
34433;SDS011;34290;48.562;13.384;2022-12-07T00:59:59;15.83;;;7.03;;
34433;SDS011;34290;48.562;13.384;2022-12-07T01:02:26;14.93;;;6.93;;
34433;SDS011;34290;48.562;13.384;2022-12-07T01:04:55;14.80;;;7.47;;
34433;SDS011;34290;48.562;13.384;2022-12-07T01:07:23;13.20;;;6.67;;
34433;SDS011;34290;48.562;13.384;2022-12-07T01:09:50;12.80;;;6.67;;
34433;SDS011;34290;48.562;13.384;2022-12-07T01:12:17;11.60;;;5.67;;
34433;SDS011;34290;48.562;13.384;2022-12-07T01:14:44;26.77;;;9.67;;
34433;SDS011;34290;48.562;13.384;2022-12-07T01:17:11;32.77;;;11.40;;
34433;SDS011;34290;48.562;13.384;2022-12-07T01:19:38;29.80;;;10.40;;
34433;SDS011;34290;48.562;13.384;2022-12-07T01:22:05;20.53;;;8.63;;
34433;SDS011;34290;48.562;13.384;2022-12-07T01:24:33;17.67;;;8.00;;
34433;SDS011;34290;48.562;13.384;2022-12-07T01:27:00;14.10;;;7.03;;
34433;SDS011;34290;48.562;13.384;2022-12-07T01:29:28;14.67;;;7.20;;
34433;SDS011;34290;48.562;13.384;2022-12-07T01:31:55;12.80;;;6.67;;
34433;SDS011;34290;48.562;13.384;2022-12-07T01:34:22;15.17;;;6.83;;
34433;SDS011;34290;48.562;13.384;2022-12-07T01:36:49;12.77;;;6.80;;
34433;SDS011;34290;48.562;13.384;2022-12-07T01:39:16;13.07;;;6.67;;
34433;SDS011;34290;48.562;13.384;2022-12-07T01:41:44;19.60;;;8.43;;
34433;SDS011;34290;48.562;13.384;2022-12-07T01:44:18;16.63;;;7.40;;
34433;SDS011;34290;48.562;13.384;2022-12-07T01:46:48;16.40;;;7.03;;
34433;SDS011;34290;48.562;13.384;2022-12-07T01:49:17;17.03;;;6.70;;
34433;SDS011;34290;48.562;13.384;2022-12-07T01:51:49;17.23;;;7.30;;
34433;SDS011;34290;48.562;13.384;2022-12-07T01:54:18;15.87;;;7.60;;
34433;SDS011;34290;48.562;13.384;2022-12-07T01:56:50;16.00;;;6.83;;
34433;SDS011;34290;48.562;13.384;2022-12-07T01:59:18;14.67;;;7.13;;
34433;SDS011;34290;48.562;13.384;2022-12-07T02:01:50;13.40;;;6.87;;
34433;SDS011;34290;48.562;13.384;2022-12-07T02:04:17;14.50;;;7.33;;
34433;SDS011;34290;48.562;13.384;2022-12-07T02:06:45;18.00;;;7.23;;
34433;SDS011;34290;48.562;13.384;2022-12-07T02:09:15;14.60;;;7.47;;
34433;SDS011;34290;48.562;13.384;2022-12-07T02:11:43;14.07;;;7.47;;
34433;SDS011;34290;48.562;13.384;2022-12-07T02:14:11;14.50;;;6.70;;
34433;SDS011;34290;48.562;13.384;2022-12-07T02:16:41;14.80;;;7.67;;
34433;SDS011;34290;48.562;13.384;2022-12-07T02:22:28;11.67;;;6.80;;
34433;SDS011;34290;48.562;13.384;2022-12-07T02:25:16;15.37;;;8.17;;
34433;SDS011;34290;48.562;13.384;2022-12-07T02:27:50;14.93;;;7.40;;
34433;SDS011;34290;48.562;13.384;2022-12-07T02:30:24;14.63;;;7.77;;
34433;SDS011;34290;48.562;13.384;2022-12-07T02:32:57;16.80;;;7.47;;
34433;SDS011;34290;48.562;13.384;2022-12-07T02:35:31;16.60;;;8.00;;
34433;SDS011;34290;48.562;13.384;2022-12-07T02:38:02;14.23;;;7.30;;
34433;SDS011;34290;48.562;13.384;2022-12-07T02:40:33;13.37;;;7.07;;
34433;SDS011;34290;48.562;13.384;2022-12-07T02:43:04;16.80;;;7.43;;
34433;SDS011;34290;48.562;13.384;2022-12-07T02:45:36;17.53;;;7.53;;
34433;SDS011;34290;48.562;13.384;2022-12-07T02:48:04;14.67;;;6.90;;
34433;SDS011;34290;48.562;13.384;2022-12-07T02:50:36;16.23;;;7.60;;
34433;SDS011;34290;48.562;13.384;2022-12-07T02:53:03;13.40;;;7.13;;
34433;SDS011;34290;48.562;13.384;2022-12-07T02:55:33;14.43;;;7.47;;
34433;SDS011;34290;48.562;13.384;2022-12-07T02:58:20;13.53;;;7.47;;
34433;SDS011;34290;48.562;13.384;2022-12-07T03:00:58;14.97;;;7.27;;
34433;SDS011;34290;48.562;13.384;2022-12-07T03:03:31;16.17;;;7.80;;
34433;SDS011;34290;48.562;13.384;2022-12-07T03:06:05;16.20;;;8.17;;
34433;SDS011;34290;48.562;13.384;2022-12-07T03:08:43;17.83;;;7.83;;
34433;SDS011;34290;48.562;13.384;2022-12-07T03:11:15;15.00;;;7.60;;
34433;SDS011;34290;48.562;13.384;2022-12-07T03:13:48;14.23;;;6.93;;
34433;SDS011;34290;48.562;13.384;2022-12-07T03:16:19;15.40;;;7.50;;
34433;SDS011;34290;48.562;13.384;2022-12-07T03:18:51;13.90;;;7.30;;
34433;SDS011;34290;48.562;13.384;2022-12-07T03:21:22;15.63;;;7.67;;
34433;SDS011;34290;48.562;13.384;2022-12-07T03:23:53;18.63;;;8.23;;
34433;SDS011;34290;48.562;13.384;2022-12-07T03:26:27;15.27;;;7.57;;
34433;SDS011;34290;48.562;13.384;2022-12-07T03:28:59;14.00;;;7.57;;
34433;SDS011;34290;48.562;13.384;2022-12-07T03:31:33;16.73;;;7.07;;
34433;SDS011;34290;48.562;13.384;2022-12-07T03:34:06;16.17;;;8.17;;
34433;SDS011;34290;48.562;13.384;2022-12-07T03:36:37;15.03;;;7.33;;
34433;SDS011;34290;48.562;13.384;2022-12-07T03:39:12;16.87;;;7.67;;
34433;SDS011;34290;48.562;13.384;2022-12-07T03:41:45;15.37;;;7.60;;
34433;SDS011;34290;48.562;13.384;2022-12-07T03:44:12;15.90;;;7.40;;
34433;SDS011;34290;48.562;13.384;2022-12-07T03:46:44;18.60;;;7.80;;
34433;SDS011;34290;48.562;13.384;2022-12-07T03:49:18;16.23;;;8.20;;
34433;SDS011;34290;48.562;13.384;2022-12-07T03:51:53;18.53;;;8.43;;
34433;SDS011;34290;48.562;13.384;2022-12-07T03:54:26;16.13;;;8.20;;
34433;SDS011;34290;48.562;13.384;2022-12-07T03:56:58;13.67;;;7.23;;
34433;SDS011;34290;48.562;13.384;2022-12-07T03:59:25;15.13;;;7.50;;
34433;SDS011;34290;48.562;13.384;2022-12-07T04:01:56;16.17;;;8.00;;
34433;SDS011;34290;48.562;13.384;2022-12-07T04:04:27;16.50;;;7.70;;
34433;SDS011;34290;48.562;13.384;2022-12-07T04:06:55;13.47;;;6.97;;
34433;SDS011;34290;48.562;13.384;2022-12-07T04:09:21;14.27;;;7.47;;
34433;SDS011;34290;48.562;13.384;2022-12-07T04:11:48;15.17;;;7.87;;
34433;SDS011;34290;48.562;13.384;2022-12-07T04:14:15;17.60;;;8.13;;
34433;SDS011;34290;48.562;13.384;2022-12-07T04:16:45;20.67;;;8.73;;
34433;SDS011;34290;48.562;13.384;2022-12-07T04:19:14;15.10;;;7.37;;
34433;SDS011;34290;48.562;13.384;2022-12-07T04:21:42;18.53;;;8.47;;
34433;SDS011;34290;48.562;13.384;2022-12-07T04:24:10;18.47;;;8.53;;
34433;SDS011;34290;48.562;13.384;2022-12-07T04:26:38;16.30;;;8.40;;
34433;SDS011;34290;48.562;13.384;2022-12-07T04:29:05;16.93;;;8.70;;
34433;SDS011;34290;48.562;13.384;2022-12-07T04:31:32;16.43;;;8.23;;
34433;SDS011;34290;48.562;13.384;2022-12-07T04:33:59;19.57;;;9.17;;
34433;SDS011;34290;48.562;13.384;2022-12-07T04:36:28;17.53;;;8.37;;
34433;SDS011;34290;48.562;13.384;2022-12-07T04:38:55;19.47;;;8.73;;
34433;SDS011;34290;48.562;13.384;2022-12-07T04:41:22;17.47;;;8.57;;
34433;SDS011;34290;48.562;13.384;2022-12-07T04:43:52;18.23;;;8.63;;
34433;SDS011;34290;48.562;13.384;2022-12-07T04:46:20;21.13;;;8.97;;
34433;SDS011;34290;48.562;13.384;2022-12-07T04:48:47;18.27;;;8.70;;
34433;SDS011;34290;48.562;13.384;2022-12-07T04:51:14;17.13;;;9.03;;
34433;SDS011;34290;48.562;13.384;2022-12-07T04:53:45;17.87;;;8.63;;
34433;SDS011;34290;48.562;13.384;2022-12-07T04:56:13;16.23;;;8.10;;
34433;SDS011;34290;48.562;13.384;2022-12-07T04:58:41;20.37;;;8.53;;
34433;SDS011;34290;48.562;13.384;2022-12-07T05:01:08;18.87;;;8.83;;
34433;SDS011;34290;48.562;13.384;2022-12-07T05:03:35;20.47;;;9.07;;
34433;SDS011;34290;48.562;13.384;2022-12-07T05:06:03;19.33;;;8.97;;
34433;SDS011;34290;48.562;13.384;2022-12-07T05:08:31;18.77;;;8.73;;
34433;SDS011;34290;48.562;13.384;2022-12-07T05:11:01;17.30;;;8.60;;
34433;SDS011;34290;48.562;13.384;2022-12-07T05:13:29;19.90;;;9.30;;
34433;SDS011;34290;48.562;13.384;2022-12-07T05:15:56;19.17;;;9.37;;
34433;SDS011;34290;48.562;13.384;2022-12-07T05:18:23;20.20;;;8.50;;
34433;SDS011;34290;48.562;13.384;2022-12-07T05:20:50;17.50;;;8.67;;
34433;SDS011;34290;48.562;13.384;2022-12-07T05:23:18;18.67;;;9.10;;
34433;SDS011;34290;48.562;13.384;2022-12-07T05:25:45;17.03;;;8.33;;
34433;SDS011;34290;48.562;13.384;2022-12-07T05:28:14;18.00;;;8.77;;
34433;SDS011;34290;48.562;13.384;2022-12-07T05:30:41;18.73;;;9.47;;
34433;SDS011;34290;48.562;13.384;2022-12-07T05:33:08;18.20;;;9.30;;
34433;SDS011;34290;48.562;13.384;2022-12-07T05:35:35;18.03;;;8.47;;
34433;SDS011;34290;48.562;13.384;2022-12-07T05:38:03;22.87;;;8.83;;
34433;SDS011;34290;48.562;13.384;2022-12-07T05:40:30;19.60;;;9.33;;
34433;SDS011;34290;48.562;13.384;2022-12-07T05:42:57;19.23;;;9.60;;
34433;SDS011;34290;48.562;13.384;2022-12-07T05:45:24;17.50;;;8.60;;
34433;SDS011;34290;48.562;13.384;2022-12-07T05:47:51;18.13;;;9.00;;
34433;SDS011;34290;48.562;13.384;2022-12-07T05:50:18;17.47;;;8.47;;
34433;SDS011;34290;48.562;13.384;2022-12-07T05:52:49;18.80;;;8.90;;
34433;SDS011;34290;48.562;13.384;2022-12-07T05:55:16;19.60;;;9.03;;
34433;SDS011;34290;48.562;13.384;2022-12-07T05:57:43;19.70;;;9.30;;
34433;SDS011;34290;48.562;13.384;2022-12-07T06:00:31;19.67;;;9.33;;
34433;SDS011;34290;48.562;13.384;2022-12-07T06:02:58;20.17;;;9.43;;
34433;SDS011;34290;48.562;13.384;2022-12-07T06:05:25;18.33;;;9.20;;
34433;SDS011;34290;48.562;13.384;2022-12-07T06:07:52;19.97;;;9.30;;
34433;SDS011;34290;48.562;13.384;2022-12-07T06:10:21;21.10;;;9.20;;
34433;SDS011;34290;48.562;13.384;2022-12-07T06:12:48;20.60;;;9.27;;
34433;SDS011;34290;48.562;13.384;2022-12-07T06:15:14;23.80;;;10.00;;
34433;SDS011;34290;48.562;13.384;2022-12-07T06:17:42;19.80;;;9.60;;
34433;SDS011;34290;48.562;13.384;2022-12-07T06:20:10;18.97;;;9.37;;
34433;SDS011;34290;48.562;13.384;2022-12-07T06:22:43;19.60;;;9.73;;
34433;SDS011;34290;48.562;13.384;2022-12-07T06:25:10;19.50;;;9.47;;
34433;SDS011;34290;48.562;13.384;2022-12-07T06:27:37;22.10;;;9.63;;
34433;SDS011;34290;48.562;13.384;2022-12-07T06:30:05;17.63;;;8.97;;
34433;SDS011;34290;48.562;13.384;2022-12-07T06:32:33;21.23;;;9.93;;
34433;SDS011;34290;48.562;13.384;2022-12-07T06:35:03;25.37;;;11.53;;
34433;SDS011;34290;48.562;13.384;2022-12-07T06:37:31;26.90;;;10.83;;
34433;SDS011;34290;48.562;13.384;2022-12-07T06:39:58;25.40;;;11.50;;
34433;SDS011;34290;48.562;13.384;2022-12-07T06:42:25;24.20;;;10.93;;
34433;SDS011;34290;48.562;13.384;2022-12-07T06:44:55;24.53;;;11.17;;
34433;SDS011;34290;48.562;13.384;2022-12-07T06:47:22;31.20;;;11.80;;
34433;SDS011;34290;48.562;13.384;2022-12-07T06:49:49;25.33;;;10.53;;
34433;SDS011;34290;48.562;13.384;2022-12-07T06:52:17;22.73;;;10.57;;
34433;SDS011;34290;48.562;13.384;2022-12-07T06:54:44;25.33;;;11.23;;
34433;SDS011;34290;48.562;13.384;2022-12-07T06:57:11;23.80;;;11.03;;
34433;SDS011;34290;48.562;13.384;2022-12-07T06:59:38;25.60;;;11.33;;
34433;SDS011;34290;48.562;13.384;2022-12-07T07:02:05;23.50;;;11.10;;
34433;SDS011;34290;48.562;13.384;2022-12-07T07:04:32;27.83;;;11.63;;
34433;SDS011;34290;48.562;13.384;2022-12-07T07:06:59;23.83;;;11.20;;
34433;SDS011;34290;48.562;13.384;2022-12-07T07:09:28;26.60;;;11.63;;
34433;SDS011;34290;48.562;13.384;2022-12-07T07:11:55;29.43;;;12.33;;
34433;SDS011;34290;48.562;13.384;2022-12-07T07:14:22;25.70;;;11.93;;
34433;SDS011;34290;48.562;13.384;2022-12-07T07:16:50;26.53;;;12.30;;
34433;SDS011;34290;48.562;13.384;2022-12-07T07:19:18;27.40;;;12.00;;
34433;SDS011;34290;48.562;13.384;2022-12-07T07:21:45;30.17;;;11.53;;
34433;SDS011;34290;48.562;13.384;2022-12-07T07:24:12;30.67;;;12.00;;
34433;SDS011;34290;48.562;13.384;2022-12-07T07:26:40;26.40;;;11.70;;
34433;SDS011;34290;48.562;13.384;2022-12-07T07:29:07;28.37;;;12.43;;
34433;SDS011;34290;48.562;13.384;2022-12-07T07:31:34;29.77;;;11.63;;
34433;SDS011;34290;48.562;13.384;2022-12-07T07:34:02;26.13;;;12.67;;
34433;SDS011;34290;48.562;13.384;2022-12-07T07:36:32;25.77;;;11.83;;
34433;SDS011;34290;48.562;13.384;2022-12-07T07:38:59;30.63;;;13.00;;
34433;SDS011;34290;48.562;13.384;2022-12-07T07:41:26;32.93;;;13.97;;
34433;SDS011;34290;48.562;13.384;2022-12-07T07:43:55;31.97;;;13.90;;
34433;SDS011;34290;48.562;13.384;2022-12-07T07:46:22;29.23;;;12.80;;
34433;SDS011;34290;48.562;13.384;2022-12-07T07:48:49;33.63;;;13.43;;
34433;SDS011;34290;48.562;13.384;2022-12-07T07:51:16;35.63;;;14.93;;
34433;SDS011;34290;48.562;13.384;2022-12-07T07:53:43;37.07;;;14.80;;
34433;SDS011;34290;48.562;13.384;2022-12-07T07:56:11;31.80;;;13.30;;
34433;SDS011;34290;48.562;13.384;2022-12-07T07:58:38;26.30;;;12.97;;
34433;SDS011;34290;48.562;13.384;2022-12-07T08:01:06;22.37;;;11.37;;
34433;SDS011;34290;48.562;13.384;2022-12-07T08:03:33;22.13;;;11.53;;
34433;SDS011;34290;48.562;13.384;2022-12-07T08:06:01;21.50;;;11.37;;
34433;SDS011;34290;48.562;13.384;2022-12-07T08:08:28;19.87;;;10.80;;
34433;SDS011;34290;48.562;13.384;2022-12-07T08:10:56;23.97;;;10.13;;
34433;SDS011;34290;48.562;13.384;2022-12-07T08:13:25;17.57;;;9.80;;
34433;SDS011;34290;48.562;13.384;2022-12-07T08:15:53;19.50;;;10.53;;
34433;SDS011;34290;48.562;13.384;2022-12-07T08:18:21;17.67;;;9.40;;
34433;SDS011;34290;48.562;13.384;2022-12-07T08:20:48;17.00;;;9.30;;
34433;SDS011;34290;48.562;13.384;2022-12-07T08:23:15;16.60;;;9.80;;
34433;SDS011;34290;48.562;13.384;2022-12-07T08:25:42;15.07;;;8.27;;
34433;SDS011;34290;48.562;13.384;2022-12-07T08:28:09;18.07;;;8.63;;
34433;SDS011;34290;48.562;13.384;2022-12-07T08:30:36;14.23;;;8.53;;
34433;SDS011;34290;48.562;13.384;2022-12-07T08:33:03;14.32;;;8.50;;
34433;SDS011;34290;48.562;13.384;2022-12-07T08:35:33;14.02;;;8.27;;
34433;SDS011;34290;48.562;13.384;2022-12-07T08:38:00;12.52;;;8.02;;
34433;SDS011;34290;48.562;13.384;2022-12-07T08:40:28;14.07;;;8.40;;
34433;SDS011;34290;48.562;13.384;2022-12-07T08:42:55;12.57;;;7.55;;
34433;SDS011;34290;48.562;13.384;2022-12-07T08:45:22;12.45;;;7.47;;
34433;SDS011;34290;48.562;13.384;2022-12-07T08:47:50;13.95;;;8.40;;
34433;SDS011;34290;48.562;13.384;2022-12-07T08:50:20;12.38;;;7.95;;
34433;SDS011;34290;48.562;13.384;2022-12-07T08:52:50;10.48;;;7.03;;
34433;SDS011;34290;48.562;13.384;2022-12-07T08:55:19;11.30;;;7.18;;
34433;SDS011;34290;48.562;13.384;2022-12-07T08:57:47;12.25;;;7.43;;
34433;SDS011;34290;48.562;13.384;2022-12-07T09:00:17;12.55;;;8.18;;
34433;SDS011;34290;48.562;13.384;2022-12-07T09:02:44;11.07;;;6.90;;
34433;SDS011;34290;48.562;13.384;2022-12-07T09:05:12;11.82;;;7.47;;
34433;SDS011;34290;48.562;13.384;2022-12-07T09:07:40;12.20;;;7.63;;
34433;SDS011;34290;48.562;13.384;2022-12-07T09:10:11;15.13;;;7.70;;
34433;SDS011;34290;48.562;13.384;2022-12-07T09:12:38;14.05;;;8.43;;
34433;SDS011;34290;48.562;13.384;2022-12-07T09:15:06;13.80;;;8.10;;
34433;SDS011;34290;48.562;13.384;2022-12-07T09:17:34;14.83;;;8.30;;
34433;SDS011;34290;48.562;13.384;2022-12-07T09:20:03;14.33;;;8.33;;
34433;SDS011;34290;48.562;13.384;2022-12-07T09:22:31;16.33;;;7.73;;
34433;SDS011;34290;48.562;13.384;2022-12-07T09:24:59;14.33;;;8.07;;
34433;SDS011;34290;48.562;13.384;2022-12-07T09:27:28;14.13;;;8.10;;
34433;SDS011;34290;48.562;13.384;2022-12-07T09:29:55;15.37;;;7.87;;
34433;SDS011;34290;48.562;13.384;2022-12-07T09:32:22;16.30;;;8.63;;
34433;SDS011;34290;48.562;13.384;2022-12-07T09:34:49;16.73;;;8.90;;
34433;SDS011;34290;48.562;13.384;2022-12-07T09:37:16;18.47;;;9.27;;
34433;SDS011;34290;48.562;13.384;2022-12-07T09:39:43;18.17;;;9.23;;
34433;SDS011;34290;48.562;13.384;2022-12-07T09:42:25;17.83;;;9.47;;
34433;SDS011;34290;48.562;13.384;2022-12-07T09:44:56;18.43;;;9.17;;
34433;SDS011;34290;48.562;13.384;2022-12-07T09:47:24;18.93;;;9.40;;
34433;SDS011;34290;48.562;13.384;2022-12-07T09:49:51;17.70;;;9.53;;
34433;SDS011;34290;48.562;13.384;2022-12-07T09:52:20;20.03;;;9.37;;
34433;SDS011;34290;48.562;13.384;2022-12-07T09:54:53;20.53;;;9.27;;
34433;SDS011;34290;48.562;13.384;2022-12-07T09:57:21;21.40;;;9.73;;
34433;SDS011;34290;48.562;13.384;2022-12-07T09:59:57;20.60;;;9.80;;
34433;SDS011;34290;48.562;13.384;2022-12-07T10:02:34;17.67;;;9.00;;
34433;SDS011;34290;48.562;13.384;2022-12-07T10:05:03;18.80;;;9.17;;
34433;SDS011;34290;48.562;13.384;2022-12-07T10:07:31;19.30;;;9.37;;
34433;SDS011;34290;48.562;13.384;2022-12-07T10:09:58;22.50;;;9.77;;
34433;SDS011;34290;48.562;13.384;2022-12-07T10:12:25;21.63;;;9.70;;
34433;SDS011;34290;48.562;13.384;2022-12-07T10:14:53;18.40;;;9.20;;
34433;SDS011;34290;48.562;13.384;2022-12-07T10:17:30;20.93;;;9.73;;
34433;SDS011;34290;48.562;13.384;2022-12-07T10:20:17;22.97;;;10.10;;
34433;SDS011;34290;48.562;13.384;2022-12-07T10:25:39;21.57;;;10.30;;
34433;SDS011;34290;48.562;13.384;2022-12-07T10:28:11;21.00;;;10.10;;
34433;SDS011;34290;48.562;13.384;2022-12-07T10:30:47;20.40;;;9.83;;
34433;SDS011;34290;48.562;13.384;2022-12-07T10:33:34;17.53;;;8.97;;
34433;SDS011;34290;48.562;13.384;2022-12-07T10:36:15;19.50;;;10.00;;
34433;SDS011;34290;48.562;13.384;2022-12-07T10:38:46;19.53;;;9.80;;
34433;SDS011;34290;48.562;13.384;2022-12-07T10:41:15;21.40;;;10.00;;
34433;SDS011;34290;48.562;13.384;2022-12-07T10:43:49;19.70;;;9.77;;
34433;SDS011;34290;48.562;13.384;2022-12-07T10:46:31;17.37;;;8.70;;
34433;SDS011;34290;48.562;13.384;2022-12-07T10:49:43;23.37;;;9.33;;
34433;SDS011;34290;48.562;13.384;2022-12-07T10:55:26;18.13;;;9.00;;
34433;SDS011;34290;48.562;13.384;2022-12-07T10:58:13;18.93;;;8.73;;
34433;SDS011;34290;48.562;13.384;2022-12-07T11:00:51;17.13;;;9.33;;
34433;SDS011;34290;48.562;13.384;2022-12-07T11:03:28;19.13;;;8.80;;
34433;SDS011;34290;48.562;13.384;2022-12-07T11:06:23;18.47;;;8.87;;
34433;SDS011;34290;48.562;13.384;2022-12-07T11:09:03;16.83;;;8.40;;
34433;SDS011;34290;48.562;13.384;2022-12-07T11:11:55;19.13;;;8.67;;
34433;SDS011;34290;48.562;13.384;2022-12-07T11:14:31;17.83;;;8.53;;
34433;SDS011;34290;48.562;13.384;2022-12-07T11:17:07;16.20;;;8.13;;
34433;SDS011;34290;48.562;13.384;2022-12-07T11:19:42;16.73;;;8.40;;
34433;SDS011;34290;48.562;13.384;2022-12-07T11:22:22;15.57;;;7.60;;
34433;SDS011;34290;48.562;13.384;2022-12-07T11:24:57;17.90;;;8.70;;
34433;SDS011;34290;48.562;13.384;2022-12-07T11:27:40;17.43;;;8.30;;
34433;SDS011;34290;48.562;13.384;2022-12-07T11:30:14;16.27;;;8.13;;
34433;SDS011;34290;48.562;13.384;2022-12-07T11:35:38;17.43;;;8.13;;
34433;SDS011;34290;48.562;13.384;2022-12-07T11:38:15;46.43;;;18.00;;
34433;SDS011;34290;48.562;13.384;2022-12-07T11:40:45;21.20;;;9.77;;
34433;SDS011;34290;48.562;13.384;2022-12-07T11:43:17;18.53;;;8.57;;
34433;SDS011;34290;48.562;13.384;2022-12-07T11:45:52;18.57;;;8.30;;
34433;SDS011;34290;48.562;13.384;2022-12-07T11:48:28;16.37;;;7.97;;
34433;SDS011;34290;48.562;13.384;2022-12-07T11:50:59;17.90;;;8.40;;
34433;SDS011;34290;48.562;13.384;2022-12-07T11:53:35;17.53;;;7.47;;
34433;SDS011;34290;48.562;13.384;2022-12-07T11:56:07;16.87;;;7.83;;
34433;SDS011;34290;48.562;13.384;2022-12-07T11:58:42;15.23;;;7.70;;
34433;SDS011;34290;48.562;13.384;2022-12-07T12:01:18;13.77;;;7.17;;
34433;SDS011;34290;48.562;13.384;2022-12-07T12:03:56;16.87;;;7.83;;
34433;SDS011;34290;48.562;13.384;2022-12-07T12:06:27;16.63;;;8.00;;
34433;SDS011;34290;48.562;13.384;2022-12-07T12:09:00;14.97;;;7.83;;
34433;SDS011;34290;48.562;13.384;2022-12-07T12:11:37;16.87;;;7.97;;
34433;SDS011;34290;48.562;13.384;2022-12-07T12:14:24;17.20;;;8.10;;
34433;SDS011;34290;48.562;13.384;2022-12-07T12:17:15;19.83;;;9.13;;
34433;SDS011;34290;48.562;13.384;2022-12-07T12:20:06;19.57;;;9.03;;
34433;SDS011;34290;48.562;13.384;2022-12-07T12:22:44;26.40;;;9.50;;
34433;SDS011;34290;48.562;13.384;2022-12-07T12:25:18;18.33;;;8.17;;
34433;SDS011;34290;48.562;13.384;2022-12-07T12:27:49;16.17;;;8.23;;
34433;SDS011;34290;48.562;13.384;2022-12-07T12:30:32;17.00;;;8.13;;
34433;SDS011;34290;48.562;13.384;2022-12-07T12:33:02;17.30;;;8.27;;
34433;SDS011;34290;48.562;13.384;2022-12-07T12:35:32;16.50;;;8.10;;
34433;SDS011;34290;48.562;13.384;2022-12-07T12:41:01;17.87;;;8.57;;
34433;SDS011;34290;48.562;13.384;2022-12-07T12:43:47;20.10;;;9.40;;
34433;SDS011;34290;48.562;13.384;2022-12-07T12:46:36;22.03;;;10.50;;
34433;SDS011;34290;48.562;13.384;2022-12-07T12:58:36;20.37;;;9.57;;
34433;SDS011;34290;48.562;13.384;2022-12-07T13:07:09;35.20;;;14.83;;
34433;SDS011;34290;48.562;13.384;2022-12-07T13:09:38;29.40;;;14.43;;
34433;SDS011;34290;48.562;13.384;2022-12-07T13:12:12;24.57;;;11.47;;
34433;SDS011;34290;48.562;13.384;2022-12-07T13:14:43;24.53;;;10.50;;
34433;SDS011;34290;48.562;13.384;2022-12-07T13:23:25;21.27;;;9.63;;
34433;SDS011;34290;48.562;13.384;2022-12-07T13:25:56;20.70;;;9.87;;
34433;SDS011;34290;48.562;13.384;2022-12-07T13:28:45;20.27;;;9.47;;
34433;SDS011;34290;48.562;13.384;2022-12-07T13:31:16;19.73;;;9.73;;
34433;SDS011;34290;48.562;13.384;2022-12-07T13:33:58;20.97;;;10.63;;
34433;SDS011;34290;48.562;13.384;2022-12-07T13:36:26;18.70;;;9.83;;
34433;SDS011;34290;48.562;13.384;2022-12-07T13:38:57;21.17;;;10.43;;
34433;SDS011;34290;48.562;13.384;2022-12-07T13:41:25;21.33;;;10.00;;
34433;SDS011;34290;48.562;13.384;2022-12-07T13:44:02;18.83;;;9.50;;
34433;SDS011;34290;48.562;13.384;2022-12-07T13:46:44;25.17;;;11.97;;
34433;SDS011;34290;48.562;13.384;2022-12-07T13:49:19;23.27;;;11.07;;
34433;SDS011;34290;48.562;13.384;2022-12-07T13:51:48;23.20;;;9.80;;
34433;SDS011;34290;48.562;13.384;2022-12-07T13:54:15;21.40;;;9.57;;
34433;SDS011;34290;48.562;13.384;2022-12-07T13:56:43;19.60;;;10.03;;
34433;SDS011;34290;48.562;13.384;2022-12-07T13:59:14;18.20;;;8.43;;
34433;SDS011;34290;48.562;13.384;2022-12-07T14:01:47;18.93;;;8.80;;
34433;SDS011;34290;48.562;13.384;2022-12-07T14:04:17;23.50;;;9.33;;
34433;SDS011;34290;48.562;13.384;2022-12-07T14:06:58;21.70;;;9.30;;
34433;SDS011;34290;48.562;13.384;2022-12-07T14:09:27;18.50;;;9.13;;
34433;SDS011;34290;48.562;13.384;2022-12-07T14:11:56;21.60;;;8.77;;
34433;SDS011;34290;48.562;13.384;2022-12-07T14:14:31;21.93;;;9.10;;
34433;SDS011;34290;48.562;13.384;2022-12-07T14:17:01;18.40;;;8.67;;
34433;SDS011;34290;48.562;13.384;2022-12-07T14:19:39;19.23;;;9.00;;
34433;SDS011;34290;48.562;13.384;2022-12-07T14:22:09;16.87;;;8.30;;
34433;SDS011;34290;48.562;13.384;2022-12-07T14:24:59;19.83;;;8.80;;
34433;SDS011;34290;48.562;13.384;2022-12-07T14:27:30;18.73;;;8.87;;
34433;SDS011;34290;48.562;13.384;2022-12-07T14:29:59;17.17;;;8.57;;
34433;SDS011;34290;48.562;13.384;2022-12-07T14:32:29;19.57;;;9.47;;
34433;SDS011;34290;48.562;13.384;2022-12-07T14:34:57;20.70;;;9.40;;
34433;SDS011;34290;48.562;13.384;2022-12-07T14:37:26;19.27;;;9.07;;
34433;SDS011;34290;48.562;13.384;2022-12-07T14:39:54;19.90;;;9.00;;
34433;SDS011;34290;48.562;13.384;2022-12-07T14:42:21;19.60;;;8.90;;
34433;SDS011;34290;48.562;13.384;2022-12-07T14:44:51;17.13;;;8.03;;
34433;SDS011;34290;48.562;13.384;2022-12-07T14:47:18;18.57;;;8.10;;
34433;SDS011;34290;48.562;13.384;2022-12-07T14:49:46;18.90;;;9.10;;
34433;SDS011;34290;48.562;13.384;2022-12-07T14:52:15;19.50;;;9.20;;
34433;SDS011;34290;48.562;13.384;2022-12-07T14:54:45;20.40;;;9.33;;
34433;SDS011;34290;48.562;13.384;2022-12-07T14:57:12;37.93;;;18.87;;
34433;SDS011;34290;48.562;13.384;2022-12-07T14:59:39;22.80;;;10.17;;
34433;SDS011;34290;48.562;13.384;2022-12-07T15:02:06;27.27;;;10.87;;
34433;SDS011;34290;48.562;13.384;2022-12-07T15:04:36;21.97;;;11.00;;
34433;SDS011;34290;48.562;13.384;2022-12-07T15:07:05;18.10;;;8.80;;
34433;SDS011;34290;48.562;13.384;2022-12-07T15:09:35;19.47;;;8.53;;
34433;SDS011;34290;48.562;13.384;2022-12-07T15:12:03;19.07;;;8.47;;
34433;SDS011;34290;48.562;13.384;2022-12-07T15:14:30;20.80;;;9.43;;